Time;durP1;ratioP1;P1;durP2;ratioP2;P2;SDS_P1;SDS_P2;PMS_P1;PMS_P2;Temp;Humidity;BMP_temperature;BMP_pressure;BME280_temperature;BME280_humidity;BME280_pressure;Samples;Min_cycle;Max_cycle;Signal;HPM_P1;HPM_P2
2021/06/03 00:01:13;;;;;;;5.00;3.93;;;;;;;;;;5068472;28;20457;-67
2021/06/03 00:03:39;;;;;;;4.20;3.90;;;;;;;;;;5068301;28;20493;-69
2021/06/03 00:06:06;;;;;;;5.40;4.40;;;;;;;;;;5066244;28;20450;-67
2021/06/03 00:08:33;;;;;;;7.10;4.73;;;;;;;;;;5067217;28;20453;-67
2021/06/03 00:11:01;;;;;;;4.50;4.10;;;;;;;;;;5068838;28;20855;-69
2021/06/03 00:13:28;;;;;;;4.60;4.10;;;;;;;;;;5067069;28;20442;-67
2021/06/03 00:15:55;;;;;;;4.13;3.80;;;;;;;;;;5068226;28;20477;-68
2021/06/03 00:18:22;;;;;;;5.17;4.70;;;;;;;;;;5068725;28;20444;-66
2021/06/03 00:20:48;;;;;;;8.30;4.90;;;;;;;;;;5066757;28;20457;-68
2021/06/03 00:23:14;;;;;;;4.80;4.37;;;;;;;;;;5067784;28;20685;-68
2021/06/03 00:25:40;;;;;;;9.63;4.10;;;;;;;;;;5068368;28;20441;-68
2021/06/03 00:28:06;;;;;;;4.53;3.93;;;;;;;;;;5064323;28;20993;-67
2021/06/03 00:30:33;;;;;;;5.40;4.90;;;;;;;;;;5067769;28;20422;-68
2021/06/03 00:32:59;;;;;;;11.30;4.20;;;;;;;;;;5068672;28;20437;-68
2021/06/03 00:35:25;;;;;;;4.33;3.83;;;;;;;;;;5068310;28;20527;-67
2021/06/03 00:37:52;;;;;;;4.70;4.30;;;;;;;;;;5068264;28;20815;-67
2021/06/03 00:40:19;;;;;;;6.60;4.80;;;;;;;;;;5068433;28;20479;-68
2021/06/03 00:42:45;;;;;;;4.50;4.10;;;;;;;;;;5068324;28;20430;-67
2021/06/03 00:45:13;;;;;;;5.10;4.60;;;;;;;;;;5068057;28;20624;-67
2021/06/03 00:47:39;;;;;;;4.40;4.00;;;;;;;;;;5064627;28;20438;-68
2021/06/03 00:50:31;;;;;;;5.73;5.13;;;;;;;;;;5068142;28;20448;-67
2021/06/03 00:52:57;;;;;;;5.00;4.57;;;;;;;;;;5066007;28;20802;-67
2021/06/03 00:55:23;;;;;;;4.93;4.43;;;;;;;;;;5067883;28;20477;-68
2021/06/03 00:57:50;;;;;;;4.13;3.73;;;;;;;;;;5068614;28;20433;-69
2021/06/03 01:00:16;;;;;;;5.50;4.30;;;;;;;;;;5067550;28;20491;-68
2021/06/03 01:02:43;;;;;;;5.23;4.73;;;;;;;;;;5067894;28;20434;-67
2021/06/03 01:05:11;;;;;;;4.70;4.20;;;;;;;;;;5067931;28;20437;-66
2021/06/03 01:07:37;;;;;;;6.60;4.57;;;;;;;;;;5068061;28;20426;-67
2021/06/03 01:10:08;;;;;;;4.10;3.80;;;;;;;;;;5066095;28;20503;-68
2021/06/03 01:12:41;;;;;;;4.40;3.80;;;;;;;;;;5066129;28;20442;-68
2021/06/03 01:15:08;;;;;;;4.83;4.40;;;;;;;;;;5066044;28;20473;-68
2021/06/03 01:17:34;;;;;;;6.80;4.40;;;;;;;;;;5066515;28;20454;-68
2021/06/03 01:20:00;;;;;;;4.43;4.03;;;;;;;;;;5067912;28;20438;-67
2021/06/03 01:22:45;;;;;;;4.60;4.20;;;;;;;;;;5068313;28;20795;-67
2021/06/03 01:25:12;;;;;;;4.60;3.93;;;;;;;;;;5071538;28;20530;-68
2021/06/03 01:27:38;;;;;;;4.43;4.07;;;;;;;;;;5071402;28;20422;-68
2021/06/03 01:30:19;;;;;;;4.80;4.20;;;;;;;;;;5068727;28;20454;-67
2021/06/03 01:32:48;;;;;;;4.03;3.70;;;;;;;;;;5071299;28;20947;-68
2021/06/03 01:35:18;;;;;;;4.43;3.97;;;;;;;;;;5070482;28;20587;-67
2021/06/03 01:37:46;;;;;;;4.93;4.43;;;;;;;;;;5072385;28;20442;-67
2021/06/03 01:40:13;;;;;;;4.40;4.00;;;;;;;;;;5071653;28;20429;-67
2021/06/03 01:42:39;;;;;;;6.20;5.13;;;;;;;;;;5070605;28;20468;-68
2021/06/03 01:45:06;;;;;;;4.77;3.80;;;;;;;;;;5070487;28;20426;-67
2021/06/03 01:47:33;;;;;;;4.30;3.90;;;;;;;;;;5070808;28;20425;-68
2021/06/03 01:49:59;;;;;;;5.00;4.50;;;;;;;;;;5069491;28;20445;-66
2021/06/03 01:52:25;;;;;;;4.20;3.90;;;;;;;;;;5068278;28;20976;-69
2021/06/03 01:54:52;;;;;;;6.53;4.13;;;;;;;;;;5070703;28;20481;-68
2021/06/03 01:57:19;;;;;;;4.60;4.17;;;;;;;;;;5071225;28;20438;-70
2021/06/03 01:59:45;;;;;;;4.80;4.50;;;;;;;;;;5069952;28;20438;-67
2021/06/03 02:02:11;;;;;;;4.77;4.37;;;;;;;;;;5070466;28;20891;-68
2021/06/03 02:04:37;;;;;;;7.20;4.53;;;;;;;;;;5071190;28;20461;-68
2021/06/03 02:07:04;;;;;;;4.67;4.20;;;;;;;;;;5071562;28;20536;-67
2021/06/03 02:09:30;;;;;;;4.17;3.83;;;;;;;;;;5071375;28;20438;-69
2021/06/03 02:11:56;;;;;;;5.70;4.90;;;;;;;;;;5067815;28;20445;-67
2021/06/03 02:14:26;;;;;;;4.20;3.90;;;;;;;;;;5071353;28;20779;-67
2021/06/03 02:16:59;;;;;;;6.80;4.20;;;;;;;;;;5070716;28;20496;-67
2021/06/03 02:19:39;;;;;;;9.00;5.13;;;;;;;;;;5072169;28;20826;-67
2021/06/03 02:22:05;;;;;;;5.87;4.27;;;;;;;;;;5070878;28;20449;-68
2021/06/03 02:24:31;;;;;;;5.90;4.00;;;;;;;;;;5071409;28;20441;-68
2021/06/03 02:26:57;;;;;;;4.93;4.53;;;;;;;;;;5069987;28;20434;-67
2021/06/03 02:29:23;;;;;;;4.77;4.37;;;;;;;;;;5071266;28;20434;-68
2021/06/03 02:31:50;;;;;;;5.10;4.60;;;;;;;;;;5070810;28;20808;-68
2021/06/03 02:34:16;;;;;;;5.13;4.73;;;;;;;;;;5069041;28;20473;-68
2021/06/03 02:36:42;;;;;;;5.50;4.90;;;;;;;;;;5070223;28;20525;-67
2021/06/03 02:39:08;;;;;;;4.77;4.30;;;;;;;;;;5071349;28;20524;-66
2021/06/03 02:41:34;;;;;;;4.93;4.50;;;;;;;;;;5071437;28;20437;-67
2021/06/03 02:44:00;;;;;;;4.37;4.00;;;;;;;;;;5071157;28;20551;-67
2021/06/03 02:46:26;;;;;;;4.77;4.37;;;;;;;;;;5070894;28;20526;-67
2021/06/03 02:48:52;;;;;;;4.70;4.30;;;;;;;;;;5068996;28;20464;-68
2021/06/03 02:51:19;;;;;;;5.63;5.10;;;;;;;;;;5070070;28;20429;-67
2021/06/03 02:53:46;;;;;;;5.17;4.73;;;;;;;;;;5070346;28;20438;-67
2021/06/03 02:56:12;;;;;;;4.33;3.90;;;;;;;;;;5070163;28;20828;-67
2021/06/03 02:58:38;;;;;;;5.00;4.53;;;;;;;;;;5068824;28;20450;-67
2021/06/03 03:01:04;;;;;;;5.20;4.73;;;;;;;;;;5070369;28;20440;-67
2021/06/03 03:03:30;;;;;;;4.53;4.10;;;;;;;;;;5069378;28;20476;-67
2021/06/03 03:05:57;;;;;;;8.00;4.10;;;;;;;;;;5067317;28;21008;-68
2021/06/03 03:08:23;;;;;;;4.50;4.10;;;;;;;;;;5069679;28;20441;-68
2021/06/03 03:10:50;;;;;;;4.30;4.00;;;;;;;;;;5069223;28;20488;-68
2021/06/03 03:13:19;;;;;;;6.20;4.40;;;;;;;;;;5069949;28;20442;-68
2021/06/03 03:15:45;;;;;;;4.93;4.53;;;;;;;;;;5066529;28;20469;-68
2021/06/03 03:18:11;;;;;;;5.13;4.73;;;;;;;;;;5069886;28;20515;-67
2021/06/03 03:20:37;;;;;;;5.23;4.73;;;;;;;;;;5065054;28;20453;-68
2021/06/03 03:23:05;;;;;;;4.83;4.43;;;;;;;;;;5069151;28;20441;-66
2021/06/03 03:25:31;;;;;;;4.80;4.40;;;;;;;;;;5069626;28;20778;-69
2021/06/03 03:27:57;;;;;;;3.40;3.20;;;;;;;;;;5069284;28;20773;-69
2021/06/03 03:30:24;;;;;;;4.70;4.30;;;;;;;;;;5069166;28;20441;-68
2021/06/03 03:32:50;;;;;;;4.37;3.97;;;;;;;;;;5069132;28;20476;-69
2021/06/03 03:35:17;;;;;;;5.97;4.57;;;;;;;;;;5067780;28;20478;-67
2021/06/03 03:37:44;;;;;;;4.43;4.13;;;;;;;;;;5069325;28;20631;-68
2021/06/03 03:40:12;;;;;;;4.40;4.07;;;;;;;;;;5069253;28;20461;-67
2021/06/03 03:42:38;;;;;;;5.20;4.70;;;;;;;;;;5065142;28;20446;-67
2021/06/03 03:45:05;;;;;;;5.23;4.73;;;;;;;;;;5068112;28;20491;-68
2021/06/03 03:47:31;;;;;;;5.10;4.70;;;;;;;;;;5069226;28;20529;-69
2021/06/03 03:49:57;;;;;;;4.67;4.17;;;;;;;;;;5067880;28;20434;-67
2021/06/03 03:52:23;;;;;;;7.27;4.07;;;;;;;;;;5069026;28;20773;-67
2021/06/03 03:54:49;;;;;;;4.27;3.93;;;;;;;;;;5069129;28;20523;-68
2021/06/03 03:57:15;;;;;;;4.73;3.87;;;;;;;;;;5068907;28;20590;-69
2021/06/03 03:59:42;;;;;;;3.97;3.57;;;;;;;;;;5068497;28;20936;-67
2021/06/03 04:02:08;;;;;;;4.37;3.97;;;;;;;;;;5066476;28;20456;-69
2021/06/03 04:04:34;;;;;;;4.23;3.93;;;;;;;;;;5067386;28;20971;-68
2021/06/03 04:07:00;;;;;;;5.40;3.97;;;;;;;;;;5067638;28;20473;-68
2021/06/03 04:09:27;;;;;;;6.30;4.10;;;;;;;;;;5068690;28;20437;-67
2021/06/03 04:11:53;;;;;;;5.80;4.90;;;;;;;;;;5068704;28;20437;-68
2021/06/03 04:14:19;;;;;;;5.77;5.13;;;;;;;;;;5068329;28;20440;-67
2021/06/03 04:16:46;;;;;;;9.10;4.63;;;;;;;;;;5068005;28;20521;-68
2021/06/03 04:19:12;;;;;;;6.30;4.10;;;;;;;;;;5067687;28;20498;-68
2021/06/03 04:21:38;;;;;;;12.20;4.63;;;;;;;;;;5068208;28;20438;-68
2021/06/03 04:24:04;;;;;;;7.50;4.70;;;;;;;;;;5068924;28;20449;-68
2021/06/03 04:26:30;;;;;;;4.63;4.33;;;;;;;;;;5070775;28;20434;-69
2021/06/03 04:28:56;;;;;;;5.40;4.93;;;;;;;;;;5067741;28;20536;-67
2021/06/03 04:31:22;;;;;;;4.37;3.97;;;;;;;;;;5069931;28;20552;-68
2021/06/03 04:33:48;;;;;;;5.50;4.20;;;;;;;;;;5070641;28;20548;-68
2021/06/03 04:36:14;;;;;;;6.70;6.10;;;;;;;;;;5070803;28;20816;-68
2021/06/03 04:38:40;;;;;;;7.13;6.43;;;;;;;;;;5070035;28;20493;-68
2021/06/03 04:41:07;;;;;;;10.40;5.80;;;;;;;;;;5070404;28;20504;-67
2021/06/03 04:43:33;;;;;;;8.10;6.17;;;;;;;;;;5067124;28;20617;-67
2021/06/03 04:45:59;;;;;;;5.90;5.30;;;;;;;;;;5069855;28;20461;-68
2021/06/03 04:48:24;;;;;;;8.17;6.17;;;;;;;;;;5070566;28;20745;-71
2021/06/03 04:50:51;;;;;;;8.93;6.40;;;;;;;;;;5070648;28;20529;-67
2021/06/03 04:53:18;;;;;;;6.87;6.20;;;;;;;;;;5070297;28;20493;-68
2021/06/03 04:55:44;;;;;;;6.90;6.20;;;;;;;;;;5068428;28;20824;-68
2021/06/03 04:58:10;;;;;;;7.10;6.50;;;;;;;;;;5074470;28;20928;-68
2021/06/03 05:00:38;;;;;;;6.87;5.50;;;;;;;;;;5073592;28;20456;-67
2021/06/03 05:03:04;;;;;;;6.53;5.93;;;;;;;;;;5074009;28;20421;-68
2021/06/03 05:05:30;;;;;;;7.53;6.20;;;;;;;;;;5072154;28;20461;-68
2021/06/03 05:07:57;;;;;;;6.17;5.60;;;;;;;;;;5073323;28;20441;-68
2021/06/03 05:10:24;;;;;;;6.53;5.80;;;;;;;;;;5074396;28;20817;-68
2021/06/03 05:12:50;;;;;;;7.00;6.30;;;;;;;;;;5073329;28;20429;-67
2021/06/03 05:15:16;;;;;;;7.50;6.73;;;;;;;;;;5073979;28;20820;-68
2021/06/03 05:17:42;;;;;;;7.40;6.63;;;;;;;;;;5074362;28;20430;-67
2021/06/03 05:20:09;;;;;;;7.30;6.37;;;;;;;;;;5074132;28;20441;-68
2021/06/03 05:22:36;;;;;;;7.33;5.93;;;;;;;;;;5072820;28;20988;-68
2021/06/03 05:25:03;;;;;;;8.27;6.17;;;;;;;;;;5071224;28;20568;-68
2021/06/03 05:27:29;;;;;;;7.50;6.13;;;;;;;;;;5071717;28;20941;-68
2021/06/03 05:29:55;;;;;;;7.20;6.50;;;;;;;;;;5071515;28;20795;-68
2021/06/03 05:32:21;;;;;;;9.10;6.17;;;;;;;;;;5070300;28;20450;-67
2021/06/03 05:34:47;;;;;;;6.67;5.60;;;;;;;;;;5070210;28;20966;-66
2021/06/03 05:37:13;;;;;;;6.67;6.07;;;;;;;;;;5074328;28;20449;-66
2021/06/03 05:39:39;;;;;;;7.13;6.07;;;;;;;;;;5070933;28;20796;-67
2021/06/03 05:42:05;;;;;;;7.47;6.07;;;;;;;;;;5074992;28;20592;-67
2021/06/03 05:44:32;;;;;;;6.80;5.20;;;;;;;;;;5085202;28;20974;-68
2021/06/03 05:46:58;;;;;;;4.40;4.10;;;;;;;;;;5082453;28;20444;-66
2021/06/03 05:49:26;;;;;;;5.00;3.73;;;;;;;;;;5073137;28;20503;-67
2021/06/03 05:51:52;;;;;;;3.77;3.47;;;;;;;;;;5082848;28;20449;-66
2021/06/03 05:54:18;;;;;;;4.00;3.30;;;;;;;;;;5074170;28;20516;-67
2021/06/03 05:56:44;;;;;;;4.10;3.20;;;;;;;;;;5067555;28;20474;-66
2021/06/03 05:59:10;;;;;;;3.20;2.90;;;;;;;;;;5075022;28;20513;-68
2021/06/03 06:01:36;;;;;;;4.10;2.60;;;;;;;;;;5089839;28;20464;-67
2021/06/03 06:06:30;;;;;;;3.30;3.00;;;;;;;;;;5074102;28;20449;-67
2021/06/03 06:08:57;;;;;;;3.23;2.93;;;;;;;;;;5087906;28;20487;-66
2021/06/03 06:11:24;;;;;;;3.30;3.00;;;;;;;;;;5077684;28;20827;-66
2021/06/03 06:13:51;;;;;;;3.90;3.60;;;;;;;;;;5067914;28;21218;-67
2021/06/03 06:16:18;;;;;;;3.87;3.57;;;;;;;;;;5074929;28;20492;-67
2021/06/03 06:18:45;;;;;;;3.27;2.97;;;;;;;;;;5081617;28;21004;-66
2021/06/03 06:21:12;;;;;;;3.90;2.80;;;;;;;;;;5081753;28;20988;-66
2021/06/03 06:23:40;;;;;;;3.50;3.20;;;;;;;;;;5072869;28;20434;-66
2021/06/03 06:26:07;;;;;;;4.57;3.20;;;;;;;;;;5082033;28;20477;-66
2021/06/03 06:28:33;;;;;;;4.10;3.60;;;;;;;;;;5057453;28;20493;-66
2021/06/03 06:30:59;;;;;;;4.03;3.70;;;;;;;;;;5065973;28;20532;-67
2021/06/03 06:33:26;;;;;;;3.90;3.60;;;;;;;;;;5080922;28;20450;-66
2021/06/03 06:35:53;;;;;;;7.53;3.03;;;;;;;;;;5075524;28;20492;-66
2021/06/03 06:38:21;;;;;;;9.00;4.27;;;;;;;;;;5085003;28;20984;-66
2021/06/03 06:40:48;;;;;;;4.10;3.33;;;;;;;;;;5078257;28;20946;-66
2021/06/03 06:43:14;;;;;;;3.87;3.47;;;;;;;;;;5077043;28;20473;-66
2021/06/03 06:45:40;;;;;;;3.20;3.00;;;;;;;;;;5072959;28;20536;-66
2021/06/03 06:48:07;;;;;;;5.07;3.57;;;;;;;;;;5063714;28;20442;-68
2021/06/03 06:50:34;;;;;;;5.13;3.63;;;;;;;;;;5073512;28;20450;-73
2021/06/03 06:53:00;;;;;;;4.10;3.80;;;;;;;;;;5070954;28;21134;-73
2021/06/03 06:55:26;;;;;;;3.80;3.50;;;;;;;;;;5070345;28;21036;-73
2021/06/03 06:57:53;;;;;;;3.60;3.30;;;;;;;;;;5076133;28;20829;-73
2021/06/03 07:00:20;;;;;;;3.53;3.17;;;;;;;;;;5070535;28;20442;-73
2021/06/03 07:02:46;;;;;;;3.90;3.60;;;;;;;;;;5076161;28;20480;-73
2021/06/03 07:05:13;;;;;;;4.43;3.30;;;;;;;;;;5086038;28;20446;-67
2021/06/03 07:07:39;;;;;;;3.63;3.33;;;;;;;;;;5070130;28;20932;-66
2021/06/03 07:10:06;;;;;;;3.67;3.37;;;;;;;;;;5070172;28;20445;-66
2021/06/03 07:12:32;;;;;;;3.97;3.67;;;;;;;;;;5079328;28;20936;-67
2021/06/03 07:15:00;;;;;;;4.20;3.90;;;;;;;;;;5091598;28;20846;-66
2021/06/03 07:17:26;;;;;;;4.23;3.83;;;;;;;;;;5076953;28;20469;-66
2021/06/03 07:19:52;;;;;;;3.50;3.20;;;;;;;;;;5074482;28;20491;-67
2021/06/03 07:22:18;;;;;;;4.30;3.90;;;;;;;;;;5082316;28;20521;-67
2021/06/03 07:24:45;;;;;;;3.97;3.67;;;;;;;;;;5076699;28;20445;-66
2021/06/03 07:27:11;;;;;;;4.10;3.80;;;;;;;;;;5068630;28;20551;-67
2021/06/03 07:29:38;;;;;;;4.60;4.10;;;;;;;;;;5073665;28;20456;-68
2021/06/03 07:32:04;;;;;;;3.17;2.97;;;;;;;;;;5065020;28;20438;-67
2021/06/03 07:34:30;;;;;;;4.00;3.70;;;;;;;;;;5069805;28;20995;-70
2021/06/03 07:36:56;;;;;;;3.70;3.00;;;;;;;;;;5086034;28;20456;-70
2021/06/03 07:39:23;;;;;;;3.07;2.87;;;;;;;;;;5069331;28;20430;-68
2021/06/03 07:41:50;;;;;;;5.70;2.77;;;;;;;;;;5067125;28;20445;-68
2021/06/03 07:44:16;;;;;;;2.70;2.50;;;;;;;;;;5072292;28;20924;-69
2021/06/03 07:46:42;;;;;;;3.40;2.50;;;;;;;;;;5071883;28;20461;-69
2021/06/03 07:49:12;;;;;;;3.53;2.93;;;;;;;;;;5074343;28;20441;-68
2021/06/03 07:51:38;;;;;;;2.80;2.60;;;;;;;;;;5081746;28;21009;-67
2021/06/03 07:54:04;;;;;;;3.37;2.50;;;;;;;;;;5068620;28;20529;-69
2021/06/03 07:56:30;;;;;;;2.87;2.63;;;;;;;;;;5077985;28;20484;-67
2021/06/03 07:58:56;;;;;;;2.40;2.20;;;;;;;;;;5067261;28;20438;-69
2021/06/03 08:01:22;;;;;;;3.27;2.97;;;;;;;;;;5069007;28;20441;-69
2021/06/03 08:03:48;;;;;;;2.90;2.40;;;;;;;;;;5079392;28;20450;-69
2021/06/03 08:06:14;;;;;;;3.33;2.20;;;;;;;;;;5072266;28;20446;-67
2021/06/03 08:08:41;;;;;;;2.60;2.40;;;;;;;;;;5079113;28;20823;-67
2021/06/03 08:11:08;;;;;;;2.57;2.37;;;;;;;;;;5077596;28;20714;-69
2021/06/03 08:13:35;;;;;;;2.60;2.40;;;;;;;;;;5070388;28;20448;-69
2021/06/03 08:16:02;;;;;;;3.77;2.53;;;;;;;;;;5074032;28;20470;-68
2021/06/03 08:18:28;;;;;;;2.50;2.30;;;;;;;;;;5070086;28;20433;-67
2021/06/03 08:20:56;;;;;;;2.47;2.17;;;;;;;;;;5069919;28;20763;-70
2021/06/03 08:23:23;;;;;;;2.97;2.40;;;;;;;;;;5074748;28;20436;-69
2021/06/03 08:25:49;;;;;;;4.60;2.20;;;;;;;;;;5071364;28;20607;-68
2021/06/03 08:28:15;;;;;;;4.13;2.60;;;;;;;;;;5065710;28;20468;-68
2021/06/03 08:30:42;;;;;;;2.70;2.50;;;;;;;;;;5069880;28;20473;-68
2021/06/03 08:33:09;;;;;;;2.73;2.53;;;;;;;;;;5070658;28;20961;-67
2021/06/03 08:35:35;;;;;;;3.13;2.83;;;;;;;;;;5067634;28;20880;-68
2021/06/03 08:38:04;;;;;;;2.50;2.30;;;;;;;;;;5070365;28;20442;-68
2021/06/03 08:40:32;;;;;;;4.80;2.60;;;;;;;;;;5065159;28;20559;-69
2021/06/03 08:42:59;;;;;;;4.00;2.90;;;;;;;;;;5068191;28;21113;-68
2021/06/03 08:45:27;;;;;;;2.30;2.10;;;;;;;;;;5065498;28;20485;-69
2021/06/03 08:47:54;;;;;;;4.20;2.30;;;;;;;;;;5067267;28;20438;-67
2021/06/03 08:50:20;;;;;;;2.20;2.10;;;;;;;;;;5067860;28;20477;-69
2021/06/03 08:52:47;;;;;;;2.50;2.30;;;;;;;;;;5068963;28;20438;-68
2021/06/03 08:58:05;;;;;;;3.30;3.00;;;;;;;;;;5044571;28;20437;-67
2021/06/03 09:00:32;;;;;;;2.60;2.40;;;;;;;;;;5066772;28;20437;-68
2021/06/03 09:02:58;;;;;;;3.13;2.40;;;;;;;;;;5067135;28;20521;-68
2021/06/03 09:05:25;;;;;;;1.93;1.83;;;;;;;;;;5066327;28;20973;-69
2021/06/03 09:07:51;;;;;;;2.50;2.30;;;;;;;;;;5066528;28;20889;-68
2021/06/03 09:10:30;;;;;;;3.27;3.00;;;;;;;;;;5066036;28;20445;-69
2021/06/03 09:13:09;;;;;;;2.97;2.30;;;;;;;;;;5065934;28;20797;-68
2021/06/03 09:15:35;;;;;;;3.63;2.50;;;;;;;;;;5071915;28;20477;-68
2021/06/03 09:18:03;;;;;;;1.90;1.80;;;;;;;;;;5070790;28;20437;-69
2021/06/03 09:20:29;;;;;;;2.20;2.10;;;;;;;;;;5069060;28;20846;-67
2021/06/03 09:22:55;;;;;;;3.27;3.00;;;;;;;;;;5072329;28;20454;-68
2021/06/03 09:25:30;;;;;;;2.50;2.30;;;;;;;;;;5070198;28;20449;-68
2021/06/03 09:28:16;;;;;;;2.87;2.20;;;;;;;;;;5068653;28;20433;-71
2021/06/03 09:30:51;;;;;;;3.00;2.00;;;;;;;;;;5065601;28;20587;-69
2021/06/03 09:33:17;;;;;;;3.90;2.40;;;;;;;;;;5068565;28;20509;-69
2021/06/03 09:35:58;;;;;;;2.90;2.60;;;;;;;;;;5065966;28;20581;-68
2021/06/03 09:38:24;;;;;;;2.30;1.80;;;;;;;;;;5066009;28;20454;-68
2021/06/03 09:40:51;;;;;;;1.43;1.33;;;;;;;;;;5067625;28;20830;-68
2021/06/03 09:43:21;;;;;;;2.07;1.97;;;;;;;;;;5067646;28;20453;-71
2021/06/03 09:45:58;;;;;;;5.60;1.80;;;;;;;;;;5083181;28;20437;-68
2021/06/03 09:48:40;;;;;;;2.37;1.90;;;;;;;;;;5073024;28;20472;-68
2021/06/03 09:51:16;;;;;;;3.60;1.83;;;;;;;;;;5067694;28;20931;-67
2021/06/03 09:53:51;;;;;;;2.23;2.00;;;;;;;;;;5070646;28;20456;-68
2021/06/03 09:56:22;;;;;;;1.87;1.77;;;;;;;;;;5072045;28;20484;-68
2021/06/03 09:58:48;;;;;;;2.53;2.33;;;;;;;;;;5070629;28;20441;-67
2021/06/03 10:01:14;;;;;;;2.43;2.23;;;;;;;;;;5068009;28;20469;-71
2021/06/03 10:03:52;;;;;;;5.07;1.70;;;;;;;;;;5069159;28;20450;-69
2021/06/03 10:06:18;;;;;;;3.03;2.10;;;;;;;;;;5067264;28;20845;-67
2021/06/03 10:08:48;;;;;;;3.53;2.10;;;;;;;;;;5071225;28;20521;-67
2021/06/03 10:11:34;;;;;;;3.13;1.60;;;;;;;;;;5077251;28;20453;-67
2021/06/03 10:14:14;;;;;;;2.10;2.00;;;;;;;;;;5070938;28;20444;-68
2021/06/03 10:16:40;;;;;;;4.90;2.37;;;;;;;;;;5071149;28;20473;-67
2021/06/03 10:19:16;;;;;;;3.53;2.20;;;;;;;;;;5071791;28;20437;-67
2021/06/03 10:21:42;;;;;;;2.00;1.80;;;;;;;;;;5068876;28;20595;-67
2021/06/03 10:24:09;;;;;;;2.07;1.87;;;;;;;;;;5071174;28;20437;-68
2021/06/03 10:26:53;;;;;;;2.00;1.80;;;;;;;;;;5071842;28;20441;-69
2021/06/03 10:29:19;;;;;;;2.37;1.80;;;;;;;;;;5072976;28;20441;-68
2021/06/03 10:31:45;;;;;;;2.27;1.70;;;;;;;;;;5079279;28;20450;-69
2021/06/03 10:34:11;;;;;;;3.47;2.20;;;;;;;;;;5070681;28;20453;-68
2021/06/03 10:36:38;;;;;;;5.23;1.90;;;;;;;;;;5072031;28;20485;-67
2021/06/03 10:39:04;;;;;;;1.93;1.70;;;;;;;;;;5071436;28;20529;-69
2021/06/03 10:41:30;;;;;;;7.53;2.33;;;;;;;;;;5070448;28;20560;-68
2021/06/03 10:43:58;;;;;;;3.70;2.10;;;;;;;;;;5071558;28;20855;-68
2021/06/03 10:46:24;;;;;;;2.10;2.00;;;;;;;;;;5058997;28;21037;-68
2021/06/03 10:48:50;;;;;;;2.23;1.90;;;;;;;;;;5072919;28;20821;-68
2021/06/03 10:51:16;;;;;;;3.63;2.40;;;;;;;;;;5072208;28;20481;-68
2021/06/03 10:53:46;;;;;;;1.70;1.60;;;;;;;;;;5066356;28;20550;-67
2021/06/03 10:56:19;;;;;;;2.30;2.10;;;;;;;;;;5072733;28;20907;-68
2021/06/03 10:58:45;;;;;;;2.30;1.80;;;;;;;;;;5069328;28;20468;-68
2021/06/03 11:01:12;;;;;;;6.00;2.20;;;;;;;;;;5069880;28;20435;-67
2021/06/03 11:03:46;;;;;;;1.83;1.73;;;;;;;;;;5067875;28;20940;-68
2021/06/03 11:06:13;;;;;;;1.93;1.70;;;;;;;;;;5082336;28;20618;-68
2021/06/03 11:08:40;;;;;;;3.63;2.20;;;;;;;;;;5066832;28;20454;-68
2021/06/03 11:11:08;;;;;;;2.37;2.23;;;;;;;;;;5068538;28;20433;-68
2021/06/03 11:13:35;;;;;;;2.00;1.80;;;;;;;;;;5086214;28;20443;-68
2021/06/03 11:16:15;;;;;;;2.27;1.90;;;;;;;;;;5080257;28;21546;-68
2021/06/03 11:18:42;;;;;;;2.30;2.10;;;;;;;;;;5070862;28;20459;-68
2021/06/03 11:21:08;;;;;;;2.90;2.20;;;;;;;;;;5075902;28;20445;-67
2021/06/03 11:23:34;;;;;;;2.30;2.10;;;;;;;;;;5071861;28;20484;-69
2021/06/03 11:26:01;;;;;;;2.33;2.10;;;;;;;;;;5069884;28;20479;-67
2021/06/03 11:28:27;;;;;;;2.20;2.00;;;;;;;;;;5076318;28;20567;-67
2021/06/03 11:30:54;;;;;;;2.40;1.93;;;;;;;;;;5082749;28;20445;-69
2021/06/03 11:33:20;;;;;;;3.33;2.43;;;;;;;;;;5072862;28;20929;-67
2021/06/03 11:35:46;;;;;;;2.20;2.00;;;;;;;;;;5067500;28;20500;-67
2021/06/03 11:38:32;;;;;;;2.00;1.90;;;;;;;;;;5071115;28;20491;-68
2021/06/03 11:40:58;;;;;;;1.90;1.80;;;;;;;;;;5070694;28;20446;-68
2021/06/03 11:43:24;;;;;;;1.97;1.77;;;;;;;;;;5070845;28;20437;-68
2021/06/03 11:45:50;;;;;;;2.23;2.03;;;;;;;;;;5070158;28;20445;-68
2021/06/03 11:48:18;;;;;;;2.10;1.90;;;;;;;;;;5073162;28;20441;-67
2021/06/03 11:50:45;;;;;;;2.40;2.20;;;;;;;;;;5069081;28;20783;-69
2021/06/03 11:53:12;;;;;;;3.10;2.43;;;;;;;;;;5064948;28;20431;-67
2021/06/03 11:55:52;;;;;;;2.57;2.37;;;;;;;;;;5086228;28;20542;-67
2021/06/03 11:58:18;;;;;;;2.40;2.10;;;;;;;;;;5075925;28;20587;-68
2021/06/03 12:00:45;;;;;;;2.20;2.10;;;;;;;;;;5073809;28;20437;-67
2021/06/03 12:03:29;;;;;;;2.30;2.10;;;;;;;;;;5070608;28;20425;-67
2021/06/03 12:05:56;;;;;;;2.57;2.37;;;;;;;;;;5068424;28;20773;-68
2021/06/03 12:08:37;;;;;;;2.50;2.30;;;;;;;;;;5065204;28;20438;-67
2021/06/03 12:11:06;;;;;;;2.50;2.00;;;;;;;;;;5069207;28;20461;-68
2021/06/03 12:13:33;;;;;;;3.00;2.10;;;;;;;;;;5067423;28;20519;-68
2021/06/03 12:16:00;;;;;;;2.67;2.47;;;;;;;;;;5068863;28;20588;-66
2021/06/03 12:18:33;;;;;;;2.57;2.37;;;;;;;;;;5069669;28;20437;-67
2021/06/03 12:20:59;;;;;;;3.77;2.27;;;;;;;;;;5069711;28;20454;-66
2021/06/03 12:23:25;;;;;;;2.27;2.07;;;;;;;;;;5069920;28;20433;-66
2021/06/03 12:25:51;;;;;;;2.50;2.30;;;;;;;;;;5072870;28;20453;-66
2021/06/03 12:28:17;;;;;;;2.37;2.17;;;;;;;;;;5069750;28;20456;-66
2021/06/03 12:30:44;;;;;;;2.63;2.43;;;;;;;;;;5068091;28;20533;-69
2021/06/03 12:33:11;;;;;;;3.30;2.80;;;;;;;;;;5069912;28;20441;-65
2021/06/03 12:35:52;;;;;;;4.63;3.00;;;;;;;;;;5068987;28;20485;-68
2021/06/03 12:38:26;;;;;;;3.13;2.93;;;;;;;;;;5080907;28;20515;-67
2021/06/03 12:40:53;;;;;;;3.90;2.70;;;;;;;;;;5070115;28;20428;-67
2021/06/03 12:43:19;;;;;;;2.83;2.60;;;;;;;;;;5071488;28;20446;-67
2021/06/03 12:45:47;;;;;;;3.67;2.73;;;;;;;;;;5065700;28;20441;-67
2021/06/03 12:48:13;;;;;;;5.20;2.30;;;;;;;;;;5066260;28;20829;-67
2021/06/03 12:50:50;;;;;;;3.60;2.30;;;;;;;;;;5073043;28;20445;-67
2021/06/03 12:53:18;;;;;;;2.63;2.40;;;;;;;;;;5071545;28;20498;-68
2021/06/03 12:55:44;;;;;;;3.73;2.43;;;;;;;;;;5069807;28;20536;-67
2021/06/03 12:58:15;;;;;;;5.07;2.53;;;;;;;;;;5067637;28;20446;-67
2021/06/03 13:00:42;;;;;;;3.47;2.20;;;;;;;;;;5067631;28;20787;-67
2021/06/03 13:03:26;;;;;;;3.73;2.50;;;;;;;;;;5067195;28;20450;-68
2021/06/03 13:06:06;;;;;;;2.60;2.07;;;;;;;;;;5070303;28;20441;-69
2021/06/03 13:08:52;;;;;;;3.00;2.50;;;;;;;;;;5066768;28;20524;-67
2021/06/03 13:11:28;;;;;;;3.47;2.57;;;;;;;;;;5065442;28;20440;-67
2021/06/03 13:13:55;;;;;;;2.43;2.23;;;;;;;;;;5067983;28;20457;-67
2021/06/03 13:16:21;;;;;;;3.90;2.67;;;;;;;;;;5069194;28;20478;-67
2021/06/03 13:18:47;;;;;;;2.97;2.73;;;;;;;;;;5071346;28;20456;-67
2021/06/03 13:21:13;;;;;;;2.47;2.27;;;;;;;;;;5068457;28;20443;-67
2021/06/03 13:23:40;;;;;;;2.40;2.20;;;;;;;;;;5066559;28;20853;-67
2021/06/03 13:26:06;;;;;;;2.60;2.40;;;;;;;;;;5073502;28;20536;-67
2021/06/03 13:28:32;;;;;;;2.80;1.73;;;;;;;;;;5071721;28;20574;-66
2021/06/03 13:31:01;;;;;;;2.50;2.30;;;;;;;;;;5070245;28;20445;-70
2021/06/03 13:33:28;;;;;;;2.30;2.13;;;;;;;;;;5070593;28;20441;-68
2021/06/03 13:35:57;;;;;;;2.87;2.50;;;;;;;;;;5070523;28;20635;-69
2021/06/03 13:38:23;;;;;;;2.90;2.50;;;;;;;;;;5070231;28;20446;-68
2021/06/03 13:40:50;;;;;;;1.87;1.67;;;;;;;;;;5070354;28;20543;-67
2021/06/03 13:43:18;;;;;;;1.93;1.73;;;;;;;;;;5071471;28;20457;-68
2021/06/03 13:45:46;;;;;;;2.83;1.83;;;;;;;;;;5069308;28;20549;-68
2021/06/03 13:48:15;;;;;;;3.00;2.60;;;;;;;;;;5071018;28;20453;-68
2021/06/03 13:50:48;;;;;;;1.97;1.43;;;;;;;;;;5070074;28;20801;-69
2021/06/03 13:53:15;;;;;;;1.40;1.30;;;;;;;;;;5070134;28;20953;-69
2021/06/03 13:55:48;;;;;;;2.80;1.30;;;;;;;;;;5070710;28;20490;-69
2021/06/03 13:58:34;;;;;;;1.57;1.47;;;;;;;;;;5070367;28;21009;-68
2021/06/03 14:01:19;;;;;;;2.73;2.00;;;;;;;;;;5068701;28;20491;-68
2021/06/03 14:03:45;;;;;;;1.50;1.40;;;;;;;;;;5070851;28;20434;-66
2021/06/03 14:06:11;;;;;;;3.63;2.43;;;;;;;;;;5069583;28;20790;-68
2021/06/03 14:08:40;;;;;;;1.70;1.60;;;;;;;;;;5066834;28;20442;-67
2021/06/03 14:11:12;;;;;;;1.60;1.50;;;;;;;;;;5071297;28;20762;-68
2021/06/03 14:13:45;;;;;;;1.73;1.63;;;;;;;;;;5067865;28;20924;-67
2021/06/03 14:16:11;;;;;;;4.10;1.73;;;;;;;;;;5080909;28;20877;-68
2021/06/03 14:18:37;;;;;;;1.50;1.33;;;;;;;;;;5070194;28;20449;-70
2021/06/03 14:21:09;;;;;;;1.83;1.10;;;;;;;;;;5069118;28;20462;-69
2021/06/03 14:23:36;;;;;;;1.53;1.33;;;;;;;;;;5070043;28;20460;-67
2021/06/03 14:26:11;;;;;;;1.50;1.40;;;;;;;;;;5069426;28;20481;-71
2021/06/03 14:28:37;;;;;;;1.40;1.30;;;;;;;;;;5069054;28;20448;-68
2021/06/03 14:31:03;;;;;;;1.70;1.20;;;;;;;;;;5063949;28;20453;-68
2021/06/03 14:33:29;;;;;;;2.00;1.43;;;;;;;;;;5071999;28;20516;-69
2021/06/03 14:35:56;;;;;;;4.00;1.30;;;;;;;;;;5069614;28;20501;-67
2021/06/03 14:38:24;;;;;;;2.43;1.30;;;;;;;;;;5069407;28;20449;-67
2021/06/03 14:40:50;;;;;;;4.33;1.47;;;;;;;;;;5068756;28;20459;-68
2021/06/03 14:43:20;;;;;;;1.27;1.13;;;;;;;;;;5068182;28;20446;-67
2021/06/03 14:46:00;;;;;;;1.40;1.27;;;;;;;;;;5065447;28;20453;-69
2021/06/03 14:48:28;;;;;;;1.17;1.07;;;;;;;;;;5069366;28;20436;-67
2021/06/03 14:50:55;;;;;;;1.40;1.30;;;;;;;;;;5068662;28;20955;-68
2021/06/03 14:53:23;;;;;;;3.90;1.40;;;;;;;;;;5068476;28;20445;-68